sensor_id;sensor_type;location;lat;lon;timestamp;temperature;humidity
66728;DHT22;53641;44.274;19.890;2022-08-19T00:00:16;24.10;87.30
66728;DHT22;53641;44.274;19.890;2022-08-19T00:02:42;24.00;87.60
66728;DHT22;53641;44.274;19.890;2022-08-19T00:05:09;23.90;87.30
66728;DHT22;53641;44.274;19.890;2022-08-19T00:07:35;23.80;87.30
66728;DHT22;53641;44.274;19.890;2022-08-19T00:10:02;23.90;87.30
66728;DHT22;53641;44.274;19.890;2022-08-19T00:12:29;23.80;88.00
66728;DHT22;53641;44.274;19.890;2022-08-19T00:14:54;23.90;88.60
66728;DHT22;53641;44.274;19.890;2022-08-19T00:17:21;23.80;88.60
66728;DHT22;53641;44.274;19.890;2022-08-19T00:19:46;23.80;89.10
66728;DHT22;53641;44.274;19.890;2022-08-19T00:22:12;23.70;88.70
66728;DHT22;53641;44.274;19.890;2022-08-19T00:24:38;23.70;88.50
66728;DHT22;53641;44.274;19.890;2022-08-19T00:27:04;23.80;88.00
66728;DHT22;53641;44.274;19.890;2022-08-19T00:29:30;23.80;88.10
66728;DHT22;53641;44.274;19.890;2022-08-19T00:32:02;23.70;88.80
66728;DHT22;53641;44.274;19.890;2022-08-19T00:34:28;23.60;89.40
66728;DHT22;53641;44.274;19.890;2022-08-19T00:36:55;23.50;89.60
66728;DHT22;53641;44.274;19.890;2022-08-19T00:39:21;23.50;90.20
66728;DHT22;53641;44.274;19.890;2022-08-19T00:41:47;23.50;90.40
66728;DHT22;53641;44.274;19.890;2022-08-19T00:44:23;23.50;90.60
66728;DHT22;53641;44.274;19.890;2022-08-19T00:46:51;23.40;90.50
66728;DHT22;53641;44.274;19.890;2022-08-19T00:49:22;23.50;90.70
66728;DHT22;53641;44.274;19.890;2022-08-19T00:51:53;23.50;90.60
66728;DHT22;53641;44.274;19.890;2022-08-19T00:54:20;23.40;91.00
66728;DHT22;53641;44.274;19.890;2022-08-19T00:56:47;23.40;90.90
66728;DHT22;53641;44.274;19.890;2022-08-19T00:59:14;23.40;91.00
66728;DHT22;53641;44.274;19.890;2022-08-19T01:01:41;23.30;91.00
66728;DHT22;53641;44.274;19.890;2022-08-19T01:04:08;23.40;91.30
66728;DHT22;53641;44.274;19.890;2022-08-19T01:06:35;23.40;91.20
66728;DHT22;53641;44.274;19.890;2022-08-19T01:09:04;23.20;91.30
66728;DHT22;53641;44.274;19.890;2022-08-19T01:11:31;23.20;91.50
66728;DHT22;53641;44.274;19.890;2022-08-19T01:13:58;23.30;91.30
66728;DHT22;53641;44.274;19.890;2022-08-19T01:16:27;23.30;91.10
66728;DHT22;53641;44.274;19.890;2022-08-19T01:18:54;23.30;90.70
66728;DHT22;53641;44.274;19.890;2022-08-19T01:21:36;23.20;90.60
66728;DHT22;53641;44.274;19.890;2022-08-19T01:24:04;23.20;90.60
66728;DHT22;53641;44.274;19.890;2022-08-19T01:26:30;23.20;90.70
66728;DHT22;53641;44.274;19.890;2022-08-19T01:28:59;23.30;91.00
66728;DHT22;53641;44.274;19.890;2022-08-19T01:31:28;23.30;91.30
66728;DHT22;53641;44.274;19.890;2022-08-19T01:33:58;23.30;91.40
66728;DHT22;53641;44.274;19.890;2022-08-19T01:36:30;23.20;91.70
66728;DHT22;53641;44.274;19.890;2022-08-19T01:38:57;23.20;91.80
66728;DHT22;53641;44.274;19.890;2022-08-19T01:41:23;23.20;92.00
66728;DHT22;53641;44.274;19.890;2022-08-19T01:43:51;23.20;92.00
66728;DHT22;53641;44.274;19.890;2022-08-19T01:46:17;23.20;92.00
66728;DHT22;53641;44.274;19.890;2022-08-19T01:48:44;23.20;92.00
66728;DHT22;53641;44.274;19.890;2022-08-19T01:51:11;23.20;91.80
66728;DHT22;53641;44.274;19.890;2022-08-19T01:53:38;23.20;92.00
66728;DHT22;53641;44.274;19.890;2022-08-19T01:56:04;23.10;91.90
66728;DHT22;53641;44.274;19.890;2022-08-19T01:58:34;23.10;92.00
66728;DHT22;53641;44.274;19.890;2022-08-19T02:01:03;23.10;92.20
66728;DHT22;53641;44.274;19.890;2022-08-19T02:03:29;23.00;92.20
66728;DHT22;53641;44.274;19.890;2022-08-19T02:05:57;23.00;92.40
66728;DHT22;53641;44.274;19.890;2022-08-19T02:08:25;22.90;92.70
66728;DHT22;53641;44.274;19.890;2022-08-19T02:10:51;22.90;92.80
66728;DHT22;53641;44.274;19.890;2022-08-19T02:13:17;22.80;93.10
66728;DHT22;53641;44.274;19.890;2022-08-19T02:15:43;22.80;93.10
66728;DHT22;53641;44.274;19.890;2022-08-19T02:18:09;22.80;92.90
66728;DHT22;53641;44.274;19.890;2022-08-19T02:20:36;22.80;93.20
66728;DHT22;53641;44.274;19.890;2022-08-19T02:23:02;22.90;93.00
66728;DHT22;53641;44.274;19.890;2022-08-19T02:25:28;22.80;92.90
66728;DHT22;53641;44.274;19.890;2022-08-19T02:27:53;22.80;93.20
66728;DHT22;53641;44.274;19.890;2022-08-19T02:30:20;22.80;93.10
66728;DHT22;53641;44.274;19.890;2022-08-19T02:32:46;22.70;92.90
66728;DHT22;53641;44.274;19.890;2022-08-19T02:35:12;22.80;93.00
66728;DHT22;53641;44.274;19.890;2022-08-19T02:37:38;22.70;93.30
66728;DHT22;53641;44.274;19.890;2022-08-19T02:40:24;22.70;93.30
66728;DHT22;53641;44.274;19.890;2022-08-19T02:42:51;22.70;93.70
66728;DHT22;53641;44.274;19.890;2022-08-19T02:45:17;22.70;93.70
66728;DHT22;53641;44.274;19.890;2022-08-19T02:47:42;22.70;93.60
66728;DHT22;53641;44.274;19.890;2022-08-19T02:50:08;22.60;93.60
66728;DHT22;53641;44.274;19.890;2022-08-19T02:52:35;22.70;93.40
66728;DHT22;53641;44.274;19.890;2022-08-19T02:55:01;22.70;93.60
66728;DHT22;53641;44.274;19.890;2022-08-19T02:57:27;22.60;93.40
66728;DHT22;53641;44.274;19.890;2022-08-19T02:59:53;22.60;93.50
66728;DHT22;53641;44.274;19.890;2022-08-19T03:02:19;22.50;93.70
66728;DHT22;53641;44.274;19.890;2022-08-19T03:04:45;22.50;93.90
66728;DHT22;53641;44.274;19.890;2022-08-19T03:07:14;22.50;94.20
66728;DHT22;53641;44.274;19.890;2022-08-19T03:09:40;22.50;93.90
66728;DHT22;53641;44.274;19.890;2022-08-19T03:12:07;22.60;94.20
66728;DHT22;53641;44.274;19.890;2022-08-19T03:14:34;22.60;94.20
66728;DHT22;53641;44.274;19.890;2022-08-19T03:17:00;22.50;94.20
66728;DHT22;53641;44.274;19.890;2022-08-19T03:19:26;22.40;94.60
66728;DHT22;53641;44.274;19.890;2022-08-19T03:21:53;22.40;94.50
66728;DHT22;53641;44.274;19.890;2022-08-19T03:24:20;22.30;94.70
66728;DHT22;53641;44.274;19.890;2022-08-19T03:26:51;22.30;94.80
66728;DHT22;53641;44.274;19.890;2022-08-19T03:29:18;22.30;95.10
66728;DHT22;53641;44.274;19.890;2022-08-19T03:31:45;22.30;95.10
66728;DHT22;53641;44.274;19.890;2022-08-19T03:34:14;22.30;95.20
66728;DHT22;53641;44.274;19.890;2022-08-19T03:36:40;22.40;95.40
66728;DHT22;53641;44.274;19.890;2022-08-19T03:39:06;22.30;95.40
66728;DHT22;53641;44.274;19.890;2022-08-19T03:41:40;22.30;95.60
66728;DHT22;53641;44.274;19.890;2022-08-19T03:44:06;22.30;95.70
66728;DHT22;53641;44.274;19.890;2022-08-19T03:46:34;22.20;95.60
66728;DHT22;53641;44.274;19.890;2022-08-19T03:49:03;22.20;95.90
66728;DHT22;53641;44.274;19.890;2022-08-19T03:51:35;22.20;95.90
66728;DHT22;53641;44.274;19.890;2022-08-19T03:54:02;22.30;96.10
66728;DHT22;53641;44.274;19.890;2022-08-19T03:56:28;22.20;96.20
66728;DHT22;53641;44.274;19.890;2022-08-19T03:58:55;22.10;96.50
66728;DHT22;53641;44.274;19.890;2022-08-19T04:01:25;22.20;96.40
66728;DHT22;53641;44.274;19.890;2022-08-19T04:03:52;22.30;96.40
66728;DHT22;53641;44.274;19.890;2022-08-19T04:06:24;22.30;96.40
66728;DHT22;53641;44.274;19.890;2022-08-19T04:08:52;22.30;96.00
66728;DHT22;53641;44.274;19.890;2022-08-19T04:11:25;22.30;96.00
66728;DHT22;53641;44.274;19.890;2022-08-19T04:13:52;22.40;96.00
66728;DHT22;53641;44.274;19.890;2022-08-19T04:16:20;22.30;96.20
66728;DHT22;53641;44.274;19.890;2022-08-19T04:18:47;22.20;96.40
66728;DHT22;53641;44.274;19.890;2022-08-19T04:21:19;22.30;96.50
66728;DHT22;53641;44.274;19.890;2022-08-19T04:23:45;22.40;96.10
66728;DHT22;53641;44.274;19.890;2022-08-19T04:26:15;22.40;96.10
66728;DHT22;53641;44.274;19.890;2022-08-19T04:28:42;22.50;96.00
66728;DHT22;53641;44.274;19.890;2022-08-19T04:31:12;22.60;96.00
66728;DHT22;53641;44.274;19.890;2022-08-19T04:33:39;22.50;96.10
66728;DHT22;53641;44.274;19.890;2022-08-19T04:36:05;22.60;95.80
66728;DHT22;53641;44.274;19.890;2022-08-19T04:38:31;22.80;96.00
66728;DHT22;53641;44.274;19.890;2022-08-19T04:40:57;22.90;95.60
66728;DHT22;53641;44.274;19.890;2022-08-19T04:43:45;22.90;95.80
66728;DHT22;53641;44.274;19.890;2022-08-19T04:46:14;22.90;95.50
66728;DHT22;53641;44.274;19.890;2022-08-19T04:48:40;22.90;95.30
66728;DHT22;53641;44.274;19.890;2022-08-19T04:51:11;23.00;95.20
66728;DHT22;53641;44.274;19.890;2022-08-19T04:53:39;22.90;95.40
66728;DHT22;53641;44.274;19.890;2022-08-19T04:56:15;23.00;95.30
66728;DHT22;53641;44.274;19.890;2022-08-19T04:58:44;23.10;95.40
66728;DHT22;53641;44.274;19.890;2022-08-19T05:01:24;23.30;94.80
66728;DHT22;53641;44.274;19.890;2022-08-19T05:03:51;23.30;94.80
66728;DHT22;53641;44.274;19.890;2022-08-19T05:06:20;23.30;94.80
66728;DHT22;53641;44.274;19.890;2022-08-19T05:08:46;23.40;94.50
66728;DHT22;53641;44.274;19.890;2022-08-19T05:11:14;23.50;94.40
66728;DHT22;53641;44.274;19.890;2022-08-19T05:13:42;23.60;94.10
66728;DHT22;53641;44.274;19.890;2022-08-19T05:16:10;23.70;94.00
66728;DHT22;53641;44.274;19.890;2022-08-19T05:18:36;23.80;94.00
66728;DHT22;53641;44.274;19.890;2022-08-19T05:21:22;23.90;93.80
66728;DHT22;53641;44.274;19.890;2022-08-19T05:24:08;24.00;93.60
66728;DHT22;53641;44.274;19.890;2022-08-19T05:26:36;24.10;93.60
66728;DHT22;53641;44.274;19.890;2022-08-19T05:29:02;24.20;93.40
66728;DHT22;53641;44.274;19.890;2022-08-19T05:31:27;24.20;93.20
66728;DHT22;53641;44.274;19.890;2022-08-19T05:33:53;24.30;93.30
66728;DHT22;53641;44.274;19.890;2022-08-19T05:36:19;24.60;92.60
66728;DHT22;53641;44.274;19.890;2022-08-19T05:38:45;24.80;92.30
66728;DHT22;53641;44.274;19.890;2022-08-19T05:41:14;25.30;91.30
66728;DHT22;53641;44.274;19.890;2022-08-19T05:43:40;25.70;91.00
66728;DHT22;53641;44.274;19.890;2022-08-19T05:46:07;26.20;90.30
66728;DHT22;53641;44.274;19.890;2022-08-19T05:48:34;26.50;89.10
66728;DHT22;53641;44.274;19.890;2022-08-19T05:51:05;26.70;87.70
66728;DHT22;53641;44.274;19.890;2022-08-19T05:53:32;27.00;88.00
66728;DHT22;53641;44.274;19.890;2022-08-19T05:56:03;27.00;87.10
66728;DHT22;53641;44.274;19.890;2022-08-19T05:58:29;26.90;85.70
66728;DHT22;53641;44.274;19.890;2022-08-19T06:00:55;26.80;86.80
66728;DHT22;53641;44.274;19.890;2022-08-19T06:03:20;26.80;85.90
66728;DHT22;53641;44.274;19.890;2022-08-19T06:05:46;27.00;85.70
66728;DHT22;53641;44.274;19.890;2022-08-19T06:08:12;27.30;85.30
66728;DHT22;53641;44.274;19.890;2022-08-19T06:10:37;27.40;84.10
66728;DHT22;53641;44.274;19.890;2022-08-19T06:13:03;27.80;81.80
66728;DHT22;53641;44.274;19.890;2022-08-19T06:15:31;28.50;81.20
66728;DHT22;53641;44.274;19.890;2022-08-19T06:17:57;28.90;80.30
66728;DHT22;53641;44.274;19.890;2022-08-19T06:20:22;29.50;79.40
66728;DHT22;53641;44.274;19.890;2022-08-19T06:22:49;29.90;79.10
66728;DHT22;53641;44.274;19.890;2022-08-19T06:25:18;30.30;76.00
66728;DHT22;53641;44.274;19.890;2022-08-19T06:27:44;30.60;75.00
66728;DHT22;53641;44.274;19.890;2022-08-19T06:30:11;30.90;74.80
66728;DHT22;53641;44.274;19.890;2022-08-19T06:32:37;31.10;74.50
66728;DHT22;53641;44.274;19.890;2022-08-19T06:35:03;31.70;73.80
66728;DHT22;53641;44.274;19.890;2022-08-19T06:37:29;31.40;73.20
66728;DHT22;53641;44.274;19.890;2022-08-19T06:39:55;31.60;72.80
66728;DHT22;53641;44.274;19.890;2022-08-19T06:42:21;31.30;73.50
66728;DHT22;53641;44.274;19.890;2022-08-19T06:44:47;31.90;72.60
66728;DHT22;53641;44.274;19.890;2022-08-19T06:47:17;32.20;71.00
66728;DHT22;53641;44.274;19.890;2022-08-19T06:49:43;32.40;70.90
66728;DHT22;53641;44.274;19.890;2022-08-19T06:52:09;32.60;71.20
66728;DHT22;53641;44.274;19.890;2022-08-19T06:54:37;33.00;70.80
66728;DHT22;53641;44.274;19.890;2022-08-19T06:57:03;33.10;69.90
66728;DHT22;53641;44.274;19.890;2022-08-19T06:59:30;33.40;68.90
66728;DHT22;53641;44.274;19.890;2022-08-19T07:02:00;33.70;68.80
66728;DHT22;53641;44.274;19.890;2022-08-19T07:04:29;34.60;66.90
66728;DHT22;53641;44.274;19.890;2022-08-19T07:07:06;34.10;66.40
66728;DHT22;53641;44.274;19.890;2022-08-19T07:09:37;34.40;66.50
66728;DHT22;53641;44.274;19.890;2022-08-19T07:12:05;34.20;66.60
66728;DHT22;53641;44.274;19.890;2022-08-19T07:14:32;34.30;65.10
66728;DHT22;53641;44.274;19.890;2022-08-19T07:17:03;35.10;64.60
66728;DHT22;53641;44.274;19.890;2022-08-19T07:19:29;35.10;64.30
66728;DHT22;53641;44.274;19.890;2022-08-19T07:21:55;36.00;63.50
66728;DHT22;53641;44.274;19.890;2022-08-19T07:24:23;36.20;63.10
66728;DHT22;53641;44.274;19.890;2022-08-19T07:26:52;35.90;63.10
66728;DHT22;53641;44.274;19.890;2022-08-19T07:29:18;35.40;63.20
66728;DHT22;53641;44.274;19.890;2022-08-19T07:31:44;36.10;63.20
66728;DHT22;53641;44.274;19.890;2022-08-19T07:34:11;35.40;63.10
66728;DHT22;53641;44.274;19.890;2022-08-19T07:36:41;35.40;63.20
66728;DHT22;53641;44.274;19.890;2022-08-19T07:39:12;35.60;63.60
66728;DHT22;53641;44.274;19.890;2022-08-19T07:41:38;36.10;63.20
66728;DHT22;53641;44.274;19.890;2022-08-19T07:44:05;36.30;63.00
66728;DHT22;53641;44.274;19.890;2022-08-19T07:46:33;35.70;63.60
66728;DHT22;53641;44.274;19.890;2022-08-19T07:49:00;36.40;63.50
66728;DHT22;53641;44.274;19.890;2022-08-19T07:51:26;36.30;62.30
66728;DHT22;53641;44.274;19.890;2022-08-19T07:53:52;36.20;63.30
66728;DHT22;53641;44.274;19.890;2022-08-19T07:56:19;37.40;62.40
66728;DHT22;53641;44.274;19.890;2022-08-19T07:58:46;37.70;61.10
66728;DHT22;53641;44.274;19.890;2022-08-19T08:01:16;37.90;61.30
66728;DHT22;53641;44.274;19.890;2022-08-19T08:03:43;38.50;60.80
66728;DHT22;53641;44.274;19.890;2022-08-19T08:06:28;38.00;60.80
66728;DHT22;53641;44.274;19.890;2022-08-19T08:09:16;37.60;61.40
66728;DHT22;53641;44.274;19.890;2022-08-19T08:11:53;37.50;61.60
66728;DHT22;53641;44.274;19.890;2022-08-19T08:14:30;37.60;61.40
66728;DHT22;53641;44.274;19.890;2022-08-19T08:16:57;37.40;61.10
66728;DHT22;53641;44.274;19.890;2022-08-19T08:19:23;37.50;61.30
66728;DHT22;53641;44.274;19.890;2022-08-19T08:21:52;37.90;62.10
66728;DHT22;53641;44.274;19.890;2022-08-19T08:26:45;39.40;59.60
66728;DHT22;53641;44.274;19.890;2022-08-19T08:29:12;39.80;59.00
66728;DHT22;53641;44.274;19.890;2022-08-19T08:31:39;40.50;59.20
66728;DHT22;53641;44.274;19.890;2022-08-19T08:34:06;40.40;58.40
66728;DHT22;53641;44.274;19.890;2022-08-19T08:36:32;40.30;58.20
66728;DHT22;53641;44.274;19.890;2022-08-19T08:39:00;40.70;58.40
66728;DHT22;53641;44.274;19.890;2022-08-19T08:41:50;40.80;57.80
66728;DHT22;53641;44.274;19.890;2022-08-19T08:44:21;40.60;58.20
66728;DHT22;53641;44.274;19.890;2022-08-19T08:46:55;40.80;58.20
66728;DHT22;53641;44.274;19.890;2022-08-19T08:49:31;41.10;57.90
66728;DHT22;53641;44.274;19.890;2022-08-19T08:52:06;40.10;58.40
66728;DHT22;53641;44.274;19.890;2022-08-19T08:54:36;40.30;59.10
66728;DHT22;53641;44.274;19.890;2022-08-19T08:57:04;40.70;58.90
66728;DHT22;53641;44.274;19.890;2022-08-19T08:59:35;41.30;57.80
66728;DHT22;53641;44.274;19.890;2022-08-19T09:02:02;41.90;57.30
66728;DHT22;53641;44.274;19.890;2022-08-19T09:04:28;42.10;56.80
66728;DHT22;53641;44.274;19.890;2022-08-19T09:07:22;42.40;56.90
66728;DHT22;53641;44.274;19.890;2022-08-19T09:12:38;42.30;55.40
66728;DHT22;53641;44.274;19.890;2022-08-19T09:15:11;42.40;56.20
66728;DHT22;53641;44.274;19.890;2022-08-19T09:17:38;41.80;56.30
66728;DHT22;53641;44.274;19.890;2022-08-19T09:20:20;42.20;56.30
66728;DHT22;53641;44.274;19.890;2022-08-19T09:22:46;42.60;56.30
66728;DHT22;53641;44.274;19.890;2022-08-19T09:25:17;42.40;55.30
66728;DHT22;53641;44.274;19.890;2022-08-19T09:27:44;42.10;55.00
66728;DHT22;53641;44.274;19.890;2022-08-19T09:30:13;41.70;54.90
66728;DHT22;53641;44.274;19.890;2022-08-19T09:32:39;41.40;55.20
66728;DHT22;53641;44.274;19.890;2022-08-19T09:35:08;40.80;55.40
66728;DHT22;53641;44.274;19.890;2022-08-19T09:37:34;41.30;55.40
66728;DHT22;53641;44.274;19.890;2022-08-19T09:40:00;42.00;56.10
66728;DHT22;53641;44.274;19.890;2022-08-19T09:42:25;41.90;54.40
66728;DHT22;53641;44.274;19.890;2022-08-19T09:44:51;42.00;54.80
66728;DHT22;53641;44.274;19.890;2022-08-19T09:47:17;42.30;54.00
66728;DHT22;53641;44.274;19.890;2022-08-19T09:49:43;42.10;53.20
66728;DHT22;53641;44.274;19.890;2022-08-19T09:52:10;42.40;51.90
66728;DHT22;53641;44.274;19.890;2022-08-19T09:54:37;42.30;50.20
66728;DHT22;53641;44.274;19.890;2022-08-19T09:57:03;42.50;51.70
66728;DHT22;53641;44.274;19.890;2022-08-19T09:59:29;42.70;52.40
66728;DHT22;53641;44.274;19.890;2022-08-19T10:01:55;41.90;51.60
66728;DHT22;53641;44.274;19.890;2022-08-19T10:04:21;40.70;52.60
66728;DHT22;53641;44.274;19.890;2022-08-19T10:06:48;40.20;54.20
66728;DHT22;53641;44.274;19.890;2022-08-19T10:09:16;40.10;53.80
66728;DHT22;53641;44.274;19.890;2022-08-19T10:11:45;39.90;53.30
66728;DHT22;53641;44.274;19.890;2022-08-19T10:14:15;39.50;53.00
66728;DHT22;53641;44.274;19.890;2022-08-19T10:16:42;39.20;53.20
66728;DHT22;53641;44.274;19.890;2022-08-19T10:19:08;39.20;53.70
66728;DHT22;53641;44.274;19.890;2022-08-19T10:21:35;39.10;53.30
66728;DHT22;53641;44.274;19.890;2022-08-19T10:24:03;38.80;53.50
66728;DHT22;53641;44.274;19.890;2022-08-19T10:26:34;38.70;53.80
66728;DHT22;53641;44.274;19.890;2022-08-19T10:29:01;38.70;53.90
66728;DHT22;53641;44.274;19.890;2022-08-19T10:31:30;38.50;53.70
66728;DHT22;53641;44.274;19.890;2022-08-19T10:33:56;38.50;53.20
66728;DHT22;53641;44.274;19.890;2022-08-19T10:36:32;38.50;53.90
66728;DHT22;53641;44.274;19.890;2022-08-19T10:39:01;38.40;53.10
66728;DHT22;53641;44.274;19.890;2022-08-19T10:41:30;38.30;53.90
66728;DHT22;53641;44.274;19.890;2022-08-19T10:44:00;38.20;53.40
66728;DHT22;53641;44.274;19.890;2022-08-19T10:46:26;38.10;53.60
66728;DHT22;53641;44.274;19.890;2022-08-19T10:48:53;38.30;54.60
66728;DHT22;53641;44.274;19.890;2022-08-19T10:51:19;38.20;53.60
66728;DHT22;53641;44.274;19.890;2022-08-19T10:54:06;38.20;53.20
66728;DHT22;53641;44.274;19.890;2022-08-19T10:56:32;38.20;53.00
66728;DHT22;53641;44.274;19.890;2022-08-19T10:59:22;38.10;52.70
66728;DHT22;53641;44.274;19.890;2022-08-19T11:01:48;38.20;52.70
66728;DHT22;53641;44.274;19.890;2022-08-19T11:04:15;38.20;52.40
66728;DHT22;53641;44.274;19.890;2022-08-19T11:06:44;38.00;52.00
66728;DHT22;53641;44.274;19.890;2022-08-19T11:09:14;38.00;52.40
66728;DHT22;53641;44.274;19.890;2022-08-19T11:11:44;38.00;52.10
66728;DHT22;53641;44.274;19.890;2022-08-19T11:14:12;38.20;52.50
66728;DHT22;53641;44.274;19.890;2022-08-19T11:16:40;38.20;53.30
66728;DHT22;53641;44.274;19.890;2022-08-19T11:19:07;38.10;51.40
66728;DHT22;53641;44.274;19.890;2022-08-19T11:21:35;38.10;51.20
66728;DHT22;53641;44.274;19.890;2022-08-19T11:24:06;38.10;51.70
66728;DHT22;53641;44.274;19.890;2022-08-19T11:26:32;38.20;52.30
66728;DHT22;53641;44.274;19.890;2022-08-19T11:28:59;38.30;52.00
66728;DHT22;53641;44.274;19.890;2022-08-19T11:31:27;38.30;50.80
66728;DHT22;53641;44.274;19.890;2022-08-19T11:33:55;38.30;52.10
66728;DHT22;53641;44.274;19.890;2022-08-19T11:36:21;38.30;52.00
66728;DHT22;53641;44.274;19.890;2022-08-19T11:38:48;38.40;51.20
66728;DHT22;53641;44.274;19.890;2022-08-19T11:41:17;38.40;50.90
66728;DHT22;53641;44.274;19.890;2022-08-19T11:43:43;38.60;51.70
66728;DHT22;53641;44.274;19.890;2022-08-19T11:46:13;38.70;51.50
66728;DHT22;53641;44.274;19.890;2022-08-19T11:48:39;38.80;50.70
66728;DHT22;53641;44.274;19.890;2022-08-19T11:51:11;38.90;50.70
66728;DHT22;53641;44.274;19.890;2022-08-19T11:53:38;38.80;50.00
66728;DHT22;53641;44.274;19.890;2022-08-19T11:56:05;38.80;51.10
66728;DHT22;53641;44.274;19.890;2022-08-19T11:58:33;38.70;49.70
66728;DHT22;53641;44.274;19.890;2022-08-19T12:00:59;38.70;51.40
66728;DHT22;53641;44.274;19.890;2022-08-19T12:03:25;38.60;50.10
66728;DHT22;53641;44.274;19.890;2022-08-19T12:05:51;38.40;50.30
66728;DHT22;53641;44.274;19.890;2022-08-19T12:08:18;38.30;50.80
66728;DHT22;53641;44.274;19.890;2022-08-19T12:10:44;38.20;50.00
66728;DHT22;53641;44.274;19.890;2022-08-19T12:13:11;38.30;50.80
66728;DHT22;53641;44.274;19.890;2022-08-19T12:15:41;38.30;51.10
66728;DHT22;53641;44.274;19.890;2022-08-19T12:18:08;38.20;50.80
66728;DHT22;53641;44.274;19.890;2022-08-19T12:20:40;38.30;50.40
66728;DHT22;53641;44.274;19.890;2022-08-19T12:23:07;38.20;51.00
66728;DHT22;53641;44.274;19.890;2022-08-19T12:25:36;38.20;51.20
66728;DHT22;53641;44.274;19.890;2022-08-19T12:28:02;38.20;51.00
66728;DHT22;53641;44.274;19.890;2022-08-19T12:30:28;38.40;52.00
66728;DHT22;53641;44.274;19.890;2022-08-19T12:32:54;38.40;53.30
66728;DHT22;53641;44.274;19.890;2022-08-19T12:35:20;38.50;53.60
66728;DHT22;53641;44.274;19.890;2022-08-19T12:37:46;38.70;54.10
66728;DHT22;53641;44.274;19.890;2022-08-19T12:40:14;38.50;53.70
66728;DHT22;53641;44.274;19.890;2022-08-19T12:42:41;38.30;53.90
66728;DHT22;53641;44.274;19.890;2022-08-19T12:45:08;38.10;54.40
66728;DHT22;53641;44.274;19.890;2022-08-19T12:47:35;38.00;54.80
66728;DHT22;53641;44.274;19.890;2022-08-19T12:50:01;37.80;54.90
66728;DHT22;53641;44.274;19.890;2022-08-19T12:52:27;37.80;55.00
66728;DHT22;53641;44.274;19.890;2022-08-19T12:54:55;37.80;54.90
66728;DHT22;53641;44.274;19.890;2022-08-19T12:57:22;37.70;54.60
66728;DHT22;53641;44.274;19.890;2022-08-19T12:59:51;37.70;54.90
66728;DHT22;53641;44.274;19.890;2022-08-19T13:02:19;37.50;55.50
66728;DHT22;53641;44.274;19.890;2022-08-19T13:04:45;37.20;56.20
66728;DHT22;53641;44.274;19.890;2022-08-19T13:07:10;36.80;56.90
66728;DHT22;53641;44.274;19.890;2022-08-19T13:09:37;36.60;57.60
66728;DHT22;53641;44.274;19.890;2022-08-19T13:12:03;36.30;58.10
66728;DHT22;53641;44.274;19.890;2022-08-19T13:14:34;36.10;58.50
66728;DHT22;53641;44.274;19.890;2022-08-19T13:17:00;36.00;59.00
66728;DHT22;53641;44.274;19.890;2022-08-19T13:19:26;35.80;58.90
66728;DHT22;53641;44.274;19.890;2022-08-19T13:21:52;35.70;58.70
66728;DHT22;53641;44.274;19.890;2022-08-19T13:24:19;35.50;58.50
66728;DHT22;53641;44.274;19.890;2022-08-19T13:26:45;35.30;58.40
66728;DHT22;53641;44.274;19.890;2022-08-19T13:29:10;35.10;58.50
66728;DHT22;53641;44.274;19.890;2022-08-19T13:31:56;34.90;59.00
66728;DHT22;53641;44.274;19.890;2022-08-19T13:34:42;34.70;59.30
66728;DHT22;53641;44.274;19.890;2022-08-19T13:37:08;34.50;59.60
66728;DHT22;53641;44.274;19.890;2022-08-19T13:39:34;34.50;59.90
66728;DHT22;53641;44.274;19.890;2022-08-19T13:42:01;34.30;61.00
66728;DHT22;53641;44.274;19.890;2022-08-19T13:44:28;34.10;62.10
66728;DHT22;53641;44.274;19.890;2022-08-19T13:47:01;33.90;64.30
66728;DHT22;53641;44.274;19.890;2022-08-19T13:49:31;33.70;66.10
66728;DHT22;53641;44.274;19.890;2022-08-19T13:51:57;33.30;67.30
66728;DHT22;53641;44.274;19.890;2022-08-19T13:54:23;33.20;67.90
66728;DHT22;53641;44.274;19.890;2022-08-19T13:56:49;32.90;67.90
66728;DHT22;53641;44.274;19.890;2022-08-19T13:59:15;32.80;68.80
66728;DHT22;53641;44.274;19.890;2022-08-19T14:01:41;32.40;72.60
66728;DHT22;53641;44.274;19.890;2022-08-19T14:04:07;31.90;74.60
66728;DHT22;53641;44.274;19.890;2022-08-19T14:06:34;31.80;75.30
66728;DHT22;53641;44.274;19.890;2022-08-19T14:08:59;31.60;76.20
66728;DHT22;53641;44.274;19.890;2022-08-19T14:11:27;31.30;78.00
66728;DHT22;53641;44.274;19.890;2022-08-19T14:13:53;30.90;80.90
66728;DHT22;53641;44.274;19.890;2022-08-19T14:16:19;30.70;83.20
66728;DHT22;53641;44.274;19.890;2022-08-19T14:18:47;30.50;85.30
66728;DHT22;53641;44.274;19.890;2022-08-19T14:21:17;30.40;88.10
66728;DHT22;53641;44.274;19.890;2022-08-19T14:23:45;30.30;90.30
66728;DHT22;53641;44.274;19.890;2022-08-19T14:26:14;30.30;91.40
66728;DHT22;53641;44.274;19.890;2022-08-19T14:28:42;30.20;90.90
66728;DHT22;53641;44.274;19.890;2022-08-19T14:31:11;30.20;91.30
66728;DHT22;53641;44.274;19.890;2022-08-19T14:33:37;30.10;92.00
66728;DHT22;53641;44.274;19.890;2022-08-19T14:36:04;29.90;92.10
66728;DHT22;53641;44.274;19.890;2022-08-19T14:38:30;29.80;91.90
66728;DHT22;53641;44.274;19.890;2022-08-19T14:41:10;29.80;90.80
66728;DHT22;53641;44.274;19.890;2022-08-19T14:43:37;29.70;90.40
66728;DHT22;53641;44.274;19.890;2022-08-19T14:46:03;29.70;90.20
66728;DHT22;53641;44.274;19.890;2022-08-19T14:48:29;29.60;90.70
66728;DHT22;53641;44.274;19.890;2022-08-19T14:50:56;29.60;90.20
66728;DHT22;53641;44.274;19.890;2022-08-19T14:53:21;29.70;90.50
66728;DHT22;53641;44.274;19.890;2022-08-19T14:55:48;29.60;91.10
66728;DHT22;53641;44.274;19.890;2022-08-19T14:58:14;29.60;90.60
66728;DHT22;53641;44.274;19.890;2022-08-19T15:00:40;29.70;89.30
66728;DHT22;53641;44.274;19.890;2022-08-19T15:03:06;29.60;90.50
66728;DHT22;53641;44.274;19.890;2022-08-19T15:05:32;29.50;90.90
66728;DHT22;53641;44.274;19.890;2022-08-19T15:08:02;29.40;90.60
66728;DHT22;53641;44.274;19.890;2022-08-19T15:10:28;29.40;90.50
66728;DHT22;53641;44.274;19.890;2022-08-19T15:12:53;29.50;91.00
66728;DHT22;53641;44.274;19.890;2022-08-19T15:15:19;29.40;90.60
66728;DHT22;53641;44.274;19.890;2022-08-19T15:17:47;29.30;90.70
66728;DHT22;53641;44.274;19.890;2022-08-19T15:20:17;29.10;91.60
66728;DHT22;53641;44.274;19.890;2022-08-19T15:22:43;29.10;89.80
66728;DHT22;53641;44.274;19.890;2022-08-19T15:25:10;28.90;90.60